createdAt,value
2018-11-02T00:00:46.971Z,11.23
2018-11-02T00:03:15.354Z,10.87
2018-11-02T00:05:43.766Z,10.90
2018-11-02T00:08:12.198Z,10.40
2018-11-02T00:10:40.594Z,11.03
2018-11-02T00:13:09.069Z,10.90
2018-11-02T00:15:38.158Z,10.80
2018-11-02T00:18:06.732Z,10.67
2018-11-02T00:20:35.096Z,11.70
2018-11-02T00:23:03.540Z,11.93
2018-11-02T00:25:32.032Z,11.67
2018-11-02T00:28:00.612Z,12.67
2018-11-02T00:30:29.114Z,11.73
2018-11-02T00:32:57.515Z,11.77
2018-11-02T00:35:26.044Z,12.87
2018-11-02T00:37:54.536Z,12.47
2018-11-02T00:40:22.989Z,12.13
2018-11-02T00:42:51.341Z,11.63
2018-11-02T00:45:19.747Z,10.63
2018-11-02T00:47:48.146Z,11.03
2018-11-02T00:50:16.541Z,11.17
2018-11-02T00:52:44.924Z,14.07
2018-11-02T00:55:13.344Z,11.03
2018-11-02T00:57:41.821Z,12.40
2018-11-02T01:00:12.512Z,10.83
2018-11-02T01:02:41.167Z,9.83
2018-11-02T01:05:10.004Z,10.93
2018-11-02T01:07:38.572Z,9.70
2018-11-02T01:10:07.288Z,9.83
2018-11-02T01:12:36.401Z,9.60
2018-11-02T01:15:05.695Z,13.10
2018-11-02T01:17:34.132Z,9.40
2018-11-02T01:20:02.581Z,10.20
2018-11-02T01:22:30.940Z,9.47
2018-11-02T01:24:59.358Z,10.77
2018-11-02T01:27:27.744Z,10.53
2018-11-02T01:29:56.333Z,9.13
2018-11-02T01:32:25.021Z,8.43
2018-11-02T01:34:53.372Z,8.73
2018-11-02T01:37:21.825Z,7.63
2018-11-02T01:39:50.401Z,8.23
2018-11-02T01:42:18.788Z,7.90
2018-11-02T01:44:47.176Z,7.43
2018-11-02T01:47:15.648Z,6.83
2018-11-02T01:49:44.073Z,8.10
2018-11-02T01:52:12.441Z,7.13
2018-11-02T01:54:40.777Z,7.10
2018-11-02T01:57:09.377Z,7.43
2018-11-02T01:59:37.917Z,7.57
2018-11-02T02:02:06.397Z,6.87
2018-11-02T02:04:34.882Z,7.07
2018-11-02T02:07:03.354Z,7.73
2018-11-02T02:09:31.849Z,7.17
2018-11-02T02:12:00.185Z,6.67
2018-11-02T02:14:28.597Z,5.93
2018-11-02T02:16:57.089Z,6.47
2018-11-02T02:19:25.573Z,5.90
2018-11-02T02:21:53.949Z,6.00
2018-11-02T02:24:22.389Z,5.97
2018-11-02T02:26:50.837Z,5.87
2018-11-02T02:29:19.181Z,6.07
2018-11-02T02:31:47.578Z,5.70
2018-11-02T02:34:16.057Z,5.30
2018-11-02T02:36:44.402Z,5.63
2018-11-02T02:39:12.904Z,5.30
2018-11-02T02:41:41.253Z,8.17
2018-11-02T02:44:09.681Z,4.87
2018-11-02T02:46:38.025Z,5.77
2018-11-02T02:49:07.046Z,5.17
2018-11-02T02:51:35.654Z,6.20
2018-11-02T02:54:04.278Z,6.50
2018-11-02T02:56:32.645Z,6.50
2018-11-02T02:59:01.035Z,8.13
2018-11-02T03:01:29.398Z,6.57
2018-11-02T03:03:57.846Z,6.30
2018-11-02T03:06:26.337Z,8.27
2018-11-02T03:08:55.235Z,6.93
2018-11-02T03:11:23.690Z,7.10
2018-11-02T03:13:52.211Z,6.67
2018-11-02T03:16:20.578Z,7.30
2018-11-02T03:18:48.980Z,8.13
2018-11-02T03:21:17.221Z,8.43
2018-11-02T03:23:45.717Z,7.70
2018-11-02T03:26:14.187Z,8.83
2018-11-02T03:28:42.582Z,8.57
2018-11-02T03:31:10.886Z,8.73
2018-11-02T03:33:39.338Z,8.80
2018-11-02T03:36:07.803Z,8.73
2018-11-02T03:38:36.168Z,9.27
2018-11-02T03:41:04.874Z,9.03
2018-11-02T03:43:33.363Z,9.20
2018-11-02T03:46:01.747Z,9.60
2018-11-02T03:48:30.084Z,10.43
2018-11-02T03:50:58.474Z,9.77
2018-11-02T03:53:26.901Z,10.20
2018-11-02T03:55:55.245Z,11.20
2018-11-02T03:58:23.812Z,10.77
2018-11-02T04:00:52.266Z,10.53
2018-11-02T04:03:20.784Z,11.77
2018-11-02T04:05:49.218Z,10.90
2018-11-02T04:08:17.698Z,11.40
2018-11-02T04:10:46.051Z,11.27
2018-11-02T04:13:14.514Z,11.80
2018-11-02T04:15:43.038Z,11.50
2018-11-02T04:18:11.395Z,11.00
2018-11-02T04:20:39.711Z,12.43
2018-11-02T04:23:08.241Z,12.27
2018-11-02T04:25:36.631Z,12.27
2018-11-02T04:28:05.132Z,11.67
2018-11-02T04:30:33.487Z,12.10
2018-11-02T04:33:01.979Z,11.47
2018-11-02T04:35:30.396Z,12.30
2018-11-02T04:37:58.759Z,13.10
2018-11-02T04:40:27.167Z,12.37
2018-11-02T04:42:55.519Z,12.40
2018-11-02T04:45:27.919Z,12.80
2018-11-02T04:47:56.791Z,13.60
2018-11-02T04:50:25.207Z,12.27
2018-11-02T04:52:53.630Z,13.47
2018-11-02T04:55:22.061Z,12.07
2018-11-02T04:57:50.495Z,12.93
2018-11-02T05:00:18.855Z,12.60
2018-11-02T05:02:47.215Z,14.27
2018-11-02T05:05:15.555Z,16.23
2018-11-02T05:07:44.024Z,16.03
2018-11-02T05:10:12.427Z,14.73
2018-11-02T05:12:40.891Z,14.47
2018-11-02T05:15:09.395Z,13.93
2018-11-02T05:17:37.815Z,14.47
2018-11-02T05:20:07.476Z,15.07
2018-11-02T05:22:35.884Z,14.97
2018-11-02T05:25:04.732Z,14.93
2018-11-02T05:27:33.216Z,15.90
2018-11-02T05:30:01.625Z,14.23
2018-11-02T05:32:30.267Z,15.43
2018-11-02T05:34:58.880Z,16.80
2018-11-02T05:37:27.388Z,15.90
2018-11-02T05:39:55.838Z,16.77
2018-11-02T05:42:24.305Z,16.43
2018-11-02T05:44:52.776Z,18.97
2018-11-02T05:47:21.176Z,17.37
2018-11-02T05:49:50.065Z,20.43
2018-11-02T05:52:18.584Z,17.00
2018-11-02T05:54:47.172Z,17.87
2018-11-02T05:57:16.377Z,18.40
2018-11-02T05:59:45.325Z,17.27
2018-11-02T06:02:14.132Z,17.47
2018-11-02T06:04:42.625Z,18.37
2018-11-02T06:07:11.356Z,18.63
2018-11-02T06:09:40.743Z,17.77
2018-11-02T06:12:09.206Z,17.33
2018-11-02T06:14:37.604Z,17.37
2018-11-02T06:17:06.937Z,17.17
2018-11-02T06:19:35.496Z,18.23
2018-11-02T06:22:03.932Z,17.23
2018-11-02T06:24:32.325Z,16.60
2018-11-02T06:27:01.810Z,17.10
2018-11-02T06:29:30.252Z,15.87
2018-11-02T06:31:58.679Z,15.40
2018-11-02T06:34:27.116Z,14.47
2018-11-02T06:36:55.568Z,14.27
2018-11-02T06:39:24.046Z,15.03
2018-11-02T06:41:52.448Z,15.07
2018-11-02T06:44:20.872Z,15.20
2018-11-02T06:46:49.604Z,14.77
2018-11-02T06:49:17.668Z,15.00
2018-11-02T06:51:45.869Z,14.40
2018-11-02T06:54:14.008Z,14.00
2018-11-02T06:56:42.099Z,13.40
2018-11-02T06:59:10.934Z,15.07
2018-11-02T07:01:39.188Z,13.73
2018-11-02T07:04:16.173Z,11.83
2018-11-02T07:06:47.821Z,12.07
2018-11-02T07:09:16.069Z,12.57
2018-11-02T07:11:44.777Z,13.43
2018-11-02T07:14:13.186Z,11.30
2018-11-02T07:16:41.672Z,9.40
2018-11-02T07:19:10.387Z,8.00
2018-11-02T07:21:38.897Z,9.40
2018-11-02T07:24:07.692Z,7.77
2018-11-02T07:26:36.125Z,8.60
2018-11-02T07:29:07.573Z,6.93
2018-11-02T07:31:40.893Z,6.73
2018-11-02T07:34:22.602Z,7.47
2018-11-02T07:36:58.746Z,5.40
2018-11-02T07:39:33.386Z,6.60
2018-11-02T07:45:06.250Z,8.73
2018-11-02T07:47:34.726Z,8.80
2018-11-02T07:50:03.264Z,12.33
2018-11-02T07:52:33.298Z,9.77
2018-11-02T07:55:15.283Z,7.70
2018-11-02T08:00:41.920Z,8.67
2018-11-02T08:06:52.224Z,8.37
2018-11-02T08:36:47.668Z,11.77
2018-11-02T08:39:27.840Z,9.97
2018-11-02T08:42:10.298Z,11.90
2018-11-02T08:44:38.887Z,9.63
2018-11-02T08:47:48.748Z,9.73
2018-11-02T09:17:19.157Z,8.90
2018-11-02T09:22:43.049Z,6.07
2018-11-02T09:25:29.723Z,6.23
2018-11-02T09:28:38.520Z,6.60
2018-11-02T09:31:11.753Z,7.60
2018-11-02T11:18:55.905Z,7.67
2018-11-02T11:40:26.573Z,8.93
2018-11-02T11:42:57.087Z,5.30
2018-11-02T11:48:35.370Z,6.33
2018-11-02T11:54:01.314Z,8.60
2018-11-02T11:56:54.306Z,9.37
2018-11-02T11:59:59.357Z,7.87
2018-11-02T12:05:52.435Z,5.20
2018-11-02T12:40:04.459Z,5.20
2018-11-02T12:42:47.734Z,4.00
2018-11-02T12:45:32.423Z,5.20
2018-11-02T12:48:20.053Z,5.53
2018-11-02T12:50:48.691Z,7.27
2018-11-02T12:53:22.293Z,5.63
2018-11-02T12:55:54.551Z,6.03
2018-11-02T12:58:23.543Z,7.53
2018-11-02T13:00:53.752Z,4.93
2018-11-02T13:03:25.263Z,7.43
2018-11-02T13:05:55.196Z,6.27
2018-11-02T13:08:23.584Z,5.73
2018-11-02T13:10:53.287Z,5.63
2018-11-02T13:13:22.528Z,5.30
2018-11-02T13:15:51.236Z,6.37
2018-11-02T13:18:20.155Z,5.40
2018-11-02T13:20:48.620Z,5.70
2018-11-02T13:23:17.648Z,5.27
2018-11-02T13:25:46.484Z,5.97
2018-11-02T13:28:15.915Z,6.90
2018-11-02T13:30:44.284Z,7.73
2018-11-02T13:33:14.801Z,5.37
2018-11-02T13:35:43.225Z,4.87
2018-11-02T13:38:16.572Z,6.93
2018-11-02T13:40:45.032Z,5.57
2018-11-02T13:43:13.556Z,9.27
2018-11-02T13:45:42.235Z,10.90
2018-11-02T13:48:10.820Z,6.93
2018-11-02T13:50:39.200Z,8.70
2018-11-02T13:53:07.594Z,8.43
2018-11-02T13:55:36.016Z,10.50
2018-11-02T13:58:04.509Z,7.77
2018-11-02T14:00:32.944Z,5.97
2018-11-02T14:03:01.350Z,9.90
2018-11-02T14:05:29.817Z,10.27
2018-11-02T14:07:58.462Z,6.33
2018-11-02T14:10:26.989Z,9.83
2018-11-02T14:12:55.584Z,10.03
2018-11-02T14:15:24.089Z,10.97
2018-11-02T14:17:52.512Z,9.60
2018-11-02T14:20:20.904Z,11.57
2018-11-02T14:22:49.408Z,11.97
2018-11-02T14:25:18.076Z,12.03
2018-11-02T14:27:46.564Z,10.17
2018-11-02T14:30:16.304Z,11.27
2018-11-02T14:32:45.356Z,13.90
2018-11-02T14:35:13.940Z,15.70
2018-11-02T14:37:42.518Z,17.17
2018-11-02T14:40:11.496Z,13.80
2018-11-02T14:42:40.624Z,11.03
2018-11-02T14:45:12.170Z,22.30
2018-11-02T14:47:40.577Z,13.50
2018-11-02T14:50:10.370Z,10.33
2018-11-02T14:52:39.141Z,10.03
2018-11-02T14:55:09.977Z,24.33
2018-11-02T14:57:38.617Z,10.63
2018-11-02T15:00:08.562Z,12.33
2018-11-02T15:02:36.985Z,13.00
2018-11-02T15:05:06.241Z,13.57
2018-11-02T15:07:34.713Z,11.13
2018-11-02T15:10:15.170Z,15.63
2018-11-02T15:12:43.600Z,9.33
2018-11-02T15:15:12.193Z,8.50
2018-11-02T15:17:41.401Z,8.73
2018-11-02T15:20:13.285Z,9.90
2018-11-02T15:22:41.875Z,10.87
2018-11-02T15:25:10.690Z,10.63
2018-11-02T15:27:39.708Z,11.00
2018-11-02T15:30:10.564Z,12.53
2018-11-02T15:32:39.074Z,12.47
2018-11-02T15:35:07.902Z,9.57
2018-11-02T15:37:36.315Z,6.03
2018-11-02T15:40:05.421Z,5.57
2018-11-02T15:42:33.865Z,7.80
2018-11-02T15:45:02.376Z,10.27
2018-11-02T15:47:30.897Z,14.50
2018-11-02T15:49:59.309Z,16.67
2018-11-02T15:52:27.913Z,14.43
2018-11-02T15:54:56.330Z,18.23
2018-11-02T15:57:24.790Z,22.57
2018-11-02T15:59:53.233Z,24.63
2018-11-02T16:02:21.701Z,20.00
2018-11-02T16:04:50.137Z,24.73
2018-11-02T16:07:18.625Z,20.93
2018-11-02T16:09:47.112Z,17.43
2018-11-02T16:12:15.639Z,16.40
2018-11-02T16:14:44.067Z,15.27
2018-11-02T16:17:12.453Z,13.00
2018-11-02T16:19:40.955Z,12.53
2018-11-02T16:22:09.495Z,15.67
2018-11-02T16:24:37.871Z,20.10
2018-11-02T16:27:06.323Z,11.00
2018-11-02T16:29:34.750Z,9.10
2018-11-02T16:32:03.187Z,10.67
2018-11-02T16:34:31.707Z,11.87
2018-11-02T16:37:00.113Z,11.67
2018-11-02T16:39:28.484Z,12.07
2018-11-02T16:41:56.875Z,11.83
2018-11-02T16:44:25.282Z,15.13
2018-11-02T16:46:53.642Z,15.67
2018-11-02T16:49:22.028Z,13.83
2018-11-02T16:51:50.524Z,17.17
2018-11-02T16:54:18.911Z,15.73
2018-11-02T16:56:47.398Z,18.53
2018-11-02T16:59:15.788Z,12.90
2018-11-02T17:01:44.196Z,14.97
2018-11-02T17:04:12.575Z,9.87
2018-11-02T17:06:40.988Z,11.40
2018-11-02T17:09:11.666Z,10.93
2018-11-02T17:11:40.132Z,10.93
2018-11-02T17:14:08.524Z,11.33
2018-11-02T17:16:36.965Z,15.77
2018-11-02T17:19:05.528Z,9.20
2018-11-02T17:21:33.953Z,10.80
2018-11-02T17:24:02.957Z,11.17
2018-11-02T17:26:31.355Z,9.70
2018-11-02T17:28:59.832Z,11.63
2018-11-02T17:31:28.281Z,14.17
2018-11-02T17:33:56.673Z,14.27
2018-11-02T17:36:25.151Z,13.83
2018-11-02T17:38:53.553Z,16.77
2018-11-02T17:41:21.932Z,14.23
2018-11-02T17:43:50.349Z,14.27
2018-11-02T17:46:18.692Z,13.97
2018-11-02T17:48:47.169Z,11.97
2018-11-02T17:51:15.652Z,11.93
2018-11-02T17:53:44.084Z,15.50
2018-11-02T17:56:12.545Z,17.93
2018-11-02T17:58:41.164Z,14.87
2018-11-02T18:01:09.580Z,11.87
2018-11-02T18:03:37.957Z,14.50
2018-11-02T18:06:06.640Z,15.13
2018-11-02T18:08:34.779Z,19.00
2018-11-02T18:11:03.068Z,15.57
2018-11-02T18:13:31.551Z,17.60
2018-11-02T18:15:59.655Z,13.33
2018-11-02T18:18:27.711Z,15.03
2018-11-02T18:20:55.767Z,12.93
2018-11-02T18:23:23.843Z,13.27
2018-11-02T18:25:51.924Z,11.77
2018-11-02T18:28:20.039Z,10.80
2018-11-02T18:30:48.101Z,13.70
2018-11-02T18:33:16.214Z,11.43
2018-11-02T18:35:44.244Z,28.63
2018-11-02T18:38:12.303Z,16.50
2018-11-02T18:40:40.366Z,11.43
2018-11-02T18:43:08.664Z,8.97
2018-11-02T18:45:36.717Z,9.87
2018-11-02T18:48:05.048Z,11.80
2018-11-02T18:50:33.020Z,8.20
2018-11-02T18:53:01.080Z,9.60
2018-11-02T18:55:29.436Z,9.47
2018-11-02T18:57:57.550Z,12.50
2018-11-02T19:00:25.617Z,8.77
2018-11-02T19:02:53.668Z,10.23
2018-11-02T19:05:21.692Z,9.23
2018-11-02T19:07:50.032Z,10.57
2018-11-02T19:10:18.433Z,7.73
2018-11-02T19:12:47.779Z,8.73
2018-11-02T19:15:17.275Z,9.30
2018-11-02T19:17:45.336Z,7.80
2018-11-02T19:20:13.796Z,8.47
2018-11-02T19:22:42.057Z,17.83
2018-11-02T19:25:12.308Z,9.10
2018-11-02T19:27:40.740Z,11.83
2018-11-02T19:30:10.968Z,11.17
2018-11-02T19:32:39.383Z,9.97
2018-11-02T19:35:08.147Z,7.13
2018-11-02T19:37:36.337Z,8.30
2018-11-02T19:40:06.201Z,7.30
2018-11-02T19:42:34.330Z,11.07
2018-11-02T19:45:02.722Z,10.77
2018-11-02T19:47:36.417Z,10.03
2018-11-02T19:50:06.625Z,8.97
2018-11-02T19:52:34.938Z,9.00
2018-11-02T19:55:03.409Z,8.10
2018-11-02T19:57:31.441Z,7.33
2018-11-02T19:59:59.502Z,6.13
2018-11-02T20:02:27.553Z,9.37
2018-11-02T20:04:55.646Z,9.10
2018-11-02T20:07:23.719Z,8.50
2018-11-02T20:09:51.859Z,10.17
2018-11-02T20:12:19.908Z,14.40
2018-11-02T20:14:48.027Z,12.83
2018-11-02T20:17:16.092Z,12.87
2018-11-02T20:19:44.172Z,14.93
2018-11-02T20:22:12.231Z,12.60
2018-11-02T20:24:40.303Z,13.30
2018-11-02T20:27:08.357Z,16.40
2018-11-02T20:29:36.439Z,15.27
2018-11-02T20:32:05.036Z,10.93
2018-11-02T20:34:33.037Z,9.37
2018-11-02T20:37:01.409Z,14.93
2018-11-02T20:39:29.845Z,18.77
2018-11-02T20:41:58.071Z,19.60
2018-11-02T20:44:26.536Z,14.47
2018-11-02T20:46:54.692Z,27.83
2018-11-02T20:49:22.796Z,23.27
2018-11-02T20:51:50.929Z,26.40
2018-11-02T20:54:19.055Z,24.90
2018-11-02T20:56:47.160Z,16.60
2018-11-02T20:59:15.248Z,18.07
2018-11-02T21:01:43.343Z,11.43
2018-11-02T21:04:11.769Z,14.87
2018-11-02T21:06:40.197Z,15.30
2018-11-02T21:09:10.740Z,15.03
2018-11-02T21:11:39.009Z,14.53
2018-11-02T21:14:07.396Z,13.13
2018-11-02T21:16:35.654Z,18.00
2018-11-02T21:19:03.884Z,13.10
2018-11-02T21:21:32.218Z,12.90
2018-11-02T21:24:00.719Z,12.57
2018-11-02T21:26:29.110Z,11.00
2018-11-02T21:28:57.564Z,14.23
2018-11-02T21:31:26.039Z,11.60
2018-11-02T21:33:54.521Z,12.53
2018-11-02T21:36:22.846Z,11.87
2018-11-02T21:38:51.478Z,17.70
2018-11-02T21:41:19.747Z,12.13
2018-11-02T21:43:48.139Z,11.77
2018-11-02T21:46:16.566Z,10.27
2018-11-02T21:48:44.951Z,9.77
2018-11-02T21:51:13.410Z,9.73
2018-11-02T21:53:41.786Z,9.37
2018-11-02T21:56:10.222Z,7.43
2018-11-02T21:58:38.634Z,7.03
2018-11-02T22:01:06.978Z,9.10
2018-11-02T22:03:35.790Z,6.90
2018-11-02T22:06:04.215Z,6.07
2018-11-02T22:08:32.663Z,9.27
2018-11-02T22:11:01.086Z,6.53
2018-11-02T22:13:29.518Z,7.80
2018-11-02T22:15:57.906Z,9.37
2018-11-02T22:18:26.069Z,9.27
2018-11-02T22:20:54.119Z,6.37
2018-11-02T22:23:22.283Z,7.53
2018-11-02T22:25:50.455Z,7.70
2018-11-02T22:28:18.551Z,7.87
2018-11-02T22:30:46.651Z,10.47
2018-11-02T22:33:14.775Z,10.20
2018-11-02T22:35:42.895Z,10.10
2018-11-02T22:38:10.995Z,9.93
2018-11-02T22:40:39.119Z,9.07
2018-11-02T22:43:07.271Z,7.60
2018-11-02T22:45:35.349Z,8.40
2018-11-02T22:48:08.728Z,9.37
2018-11-02T22:50:36.916Z,6.73
2018-11-02T22:53:05.235Z,9.73
2018-11-02T22:55:33.442Z,8.20
2018-11-02T22:58:01.589Z,7.13
2018-11-02T23:00:29.751Z,9.40
2018-11-02T23:02:57.870Z,8.37
2018-11-02T23:05:25.989Z,6.83
2018-11-02T23:07:54.131Z,7.10
2018-11-02T23:10:22.264Z,12.20
2018-11-02T23:12:50.419Z,10.80
2018-11-02T23:15:18.511Z,7.93
2018-11-02T23:17:46.620Z,10.33
2018-11-02T23:20:15.603Z,7.53
2018-11-02T23:22:43.884Z,7.97
2018-11-02T23:25:12.412Z,8.13
2018-11-02T23:27:41.712Z,9.30
2018-11-02T23:30:10.378Z,8.83
2018-11-02T23:32:38.407Z,11.43
2018-11-02T23:35:06.735Z,8.57
2018-11-02T23:37:34.849Z,8.80
2018-11-02T23:40:03.067Z,10.87
2018-11-02T23:42:31.268Z,7.73
2018-11-02T23:44:59.451Z,8.07
2018-11-02T23:47:28.004Z,7.17
2018-11-02T23:49:56.303Z,7.20
2018-11-02T23:52:25.335Z,7.67
2018-11-02T23:54:53.488Z,7.07
2018-11-02T23:57:21.616Z,7.70
2018-11-02T23:59:49.852Z,7.03
